<?xml version="1.0" encoding="UTF-8" standalone="no" ?>
<gpx xmlns="http://www.topografix.com/GPX/1/1" xmlns:xsi="http://www.w3.org/2001/XMLSchema-instance" xsi:schemaLocation="http://www.topografix.com/GPX/1/1 http://www.topografix.com/GPX/1/1/gpx.xsd" version="1.1" creator="VisuGPX - https://www.visugpx.com">
  <metadata>
    <name>Autour de Neuilly-le-Malherbe</name>
    <desc><![CDATA[Balade autour de Neuilly le Malherbe.]]></desc>
  </metadata>
  <wpt lat="49.09536" lon="-0.54886">
    <ele>106</ele>
    <name><![CDATA[Calvaire]]></name>
  </wpt>
  <wpt lat="49.08753" lon="-0.54584">
    <ele>134</ele>
    <name><![CDATA[Jonction route]]></name>
  </wpt>
  <wpt lat="49.08965" lon="-0.53768">
    <ele>128</ele>
    <name><![CDATA[Croisement route/chemins]]></name>
  </wpt>
  <wpt lat="49.09341" lon="-0.54317">
    <ele>107</ele>
    <name><![CDATA[Rue du Lavoir]]></name>
  </wpt>
  <wpt lat="49.09497" lon="-0.53962">
    <ele>97</ele>
    <name><![CDATA[BIfurcation à gauche avant l'église]]></name>
  </wpt>
  <wpt lat="49.09652" lon="-0.53981">
    <ele>88</ele>
    <name><![CDATA[Le Moustier]]></name>
  </wpt>
  <wpt lat="49.10072" lon="-0.55265">
    <ele>58</ele>
    <name><![CDATA[Le Pont]]></name>
  </wpt>
  <wpt lat="49.09536" lon="-0.54886">
    <ele>106</ele>
    <name><![CDATA[Calvaire]]></name>
  </wpt>
  <trk>
    <name><![CDATA[Autour de Neuilly-le-Malherbe]]></name>
    <trkseg>
      <trkpt lat="49.09536" lon="-0.54886">
        <ele>106</ele>
        <time>2020-02-06T09:22:59+01:00</time>
      </trkpt>
      <trkpt lat="49.09517" lon="-0.54887">
        <ele>106</ele>
        <time>2020-02-06T09:23:32+01:00</time>
      </trkpt>
      <trkpt lat="49.09495" lon="-0.54883">
        <ele>106</ele>
        <time>2020-02-06T09:24:11+01:00</time>
      </trkpt>
      <trkpt lat="49.0948" lon="-0.54876">
        <ele>107</ele>
        <time>2020-02-06T09:24:26+01:00</time>
      </trkpt>
      <trkpt lat="49.09461" lon="-0.54872">
        <ele>107</ele>
        <time>2020-02-06T09:24:46+01:00</time>
      </trkpt>
      <trkpt lat="49.09446" lon="-0.54869">
        <ele>108</ele>
        <time>2020-02-06T09:24:59+01:00</time>
      </trkpt>
      <trkpt lat="49.09426" lon="-0.54864">
        <ele>108</ele>
        <time>2020-02-06T09:25:17+01:00</time>
      </trkpt>
      <trkpt lat="49.0941" lon="-0.5486">
        <ele>109</ele>
        <time>2020-02-06T09:25:30+01:00</time>
      </trkpt>
      <trkpt lat="49.09366" lon="-0.54853">
        <ele>109</ele>
        <time>2020-02-06T09:26:11+01:00</time>
      </trkpt>
      <trkpt lat="49.09322" lon="-0.54852">
        <ele>109</ele>
        <time>2020-02-06T09:26:48+01:00</time>
      </trkpt>
      <trkpt lat="49.0931" lon="-0.54851">
        <ele>109</ele>
        <time>2020-02-06T09:26:59+01:00</time>
      </trkpt>
      <trkpt lat="49.0927" lon="-0.54846">
        <ele>110</ele>
        <time>2020-02-06T09:27:33+01:00</time>
      </trkpt>
      <trkpt lat="49.09258" lon="-0.54844">
        <ele>110</ele>
        <time>2020-02-06T09:27:42+01:00</time>
      </trkpt>
      <trkpt lat="49.09239" lon="-0.54845">
        <ele>111</ele>
        <time>2020-02-06T09:28:19+01:00</time>
      </trkpt>
      <trkpt lat="49.0922" lon="-0.54846">
        <ele>111</ele>
        <time>2020-02-06T09:28:38+01:00</time>
      </trkpt>
      <trkpt lat="49.09202" lon="-0.54842">
        <ele>112</ele>
        <time>2020-02-06T09:28:55+01:00</time>
      </trkpt>
      <trkpt lat="49.09183" lon="-0.54843">
        <ele>112</ele>
        <time>2020-02-06T09:29:12+01:00</time>
      </trkpt>
      <trkpt lat="49.09166" lon="-0.54843">
        <ele>112</ele>
        <time>2020-02-06T09:29:32+01:00</time>
      </trkpt>
      <trkpt lat="49.09147" lon="-0.54838">
        <ele>113</ele>
        <time>2020-02-06T09:29:46+01:00</time>
      </trkpt>
      <trkpt lat="49.09141" lon="-0.54837">
        <ele>113</ele>
        <time>2020-02-06T09:29:52+01:00</time>
      </trkpt>
      <trkpt lat="49.09096" lon="-0.5484">
        <ele>114</ele>
        <time>2020-02-06T09:30:34+01:00</time>
      </trkpt>
      <trkpt lat="49.09076" lon="-0.54836">
        <ele>114</ele>
        <time>2020-02-06T09:30:53+01:00</time>
      </trkpt>
      <trkpt lat="49.09032" lon="-0.54826">
        <ele>116</ele>
        <time>2020-02-06T09:31:39+01:00</time>
      </trkpt>
      <trkpt lat="49.0902" lon="-0.54811">
        <ele>117</ele>
        <time>2020-02-06T09:32:03+01:00</time>
      </trkpt>
      <trkpt lat="49.09006" lon="-0.54801">
        <ele>117</ele>
        <time>2020-02-06T09:32:20+01:00</time>
      </trkpt>
      <trkpt lat="49.08989" lon="-0.54788">
        <ele>118</ele>
        <time>2020-02-06T09:32:42+01:00</time>
      </trkpt>
      <trkpt lat="49.08978" lon="-0.54783">
        <ele>119</ele>
        <time>2020-02-06T09:32:54+01:00</time>
      </trkpt>
      <trkpt lat="49.08963" lon="-0.54775">
        <ele>120</ele>
        <time>2020-02-06T09:33:13+01:00</time>
      </trkpt>
      <trkpt lat="49.08955" lon="-0.54773">
        <ele>120</ele>
        <time>2020-02-06T09:33:23+01:00</time>
      </trkpt>
      <trkpt lat="49.08925" lon="-0.54764">
        <ele>122</ele>
        <time>2020-02-06T09:33:56+01:00</time>
      </trkpt>
      <trkpt lat="49.08902" lon="-0.54753">
        <ele>124</ele>
        <time>2020-02-06T09:34:22+01:00</time>
      </trkpt>
      <trkpt lat="49.08865" lon="-0.54727">
        <ele>127</ele>
        <time>2020-02-06T09:34:59+01:00</time>
      </trkpt>
      <trkpt lat="49.0884" lon="-0.54709">
        <ele>130</ele>
        <time>2020-02-06T09:35:24+01:00</time>
      </trkpt>
      <trkpt lat="49.08821" lon="-0.54696">
        <ele>131</ele>
        <time>2020-02-06T09:35:46+01:00</time>
      </trkpt>
      <trkpt lat="49.08784" lon="-0.54668">
        <ele>132</ele>
        <time>2020-02-06T09:36:27+01:00</time>
      </trkpt>
      <trkpt lat="49.08765" lon="-0.54659">
        <ele>133</ele>
        <time>2020-02-06T09:36:53+01:00</time>
      </trkpt>
      <trkpt lat="49.08759" lon="-0.54648">
        <ele>133</ele>
        <time>2020-02-06T09:37:02+01:00</time>
      </trkpt>
      <trkpt lat="49.08757" lon="-0.54618">
        <ele>133</ele>
        <time>2020-02-06T09:37:20+01:00</time>
      </trkpt>
      <trkpt lat="49.08753" lon="-0.54584">
        <ele>134</ele>
        <time>2020-02-06T09:37:43+01:00</time>
      </trkpt>
      <trkpt lat="49.08745" lon="-0.54587">
        <ele>134</ele>
        <time>2020-02-06T09:38:01+01:00</time>
      </trkpt>
      <trkpt lat="49.08722" lon="-0.54591">
        <ele>134</ele>
        <time>2020-02-06T09:38:20+01:00</time>
      </trkpt>
      <trkpt lat="49.08701" lon="-0.54591">
        <ele>134</ele>
        <time>2020-02-06T09:38:43+01:00</time>
      </trkpt>
      <trkpt lat="49.08682" lon="-0.54593">
        <ele>134</ele>
        <time>2020-02-06T09:39:13+01:00</time>
      </trkpt>
      <trkpt lat="49.08638" lon="-0.5458">
        <ele>135</ele>
        <time>2020-02-06T09:39:50+01:00</time>
      </trkpt>
      <trkpt lat="49.08627" lon="-0.54557">
        <ele>135</ele>
        <time>2020-02-06T09:40:23+01:00</time>
      </trkpt>
      <trkpt lat="49.08627" lon="-0.54551">
        <ele>135</ele>
        <time>2020-02-06T09:40:27+01:00</time>
      </trkpt>
      <trkpt lat="49.08628" lon="-0.54481">
        <ele>133</ele>
        <time>2020-02-06T09:41:09+01:00</time>
      </trkpt>
      <trkpt lat="49.08633" lon="-0.54426">
        <ele>131</ele>
        <time>2020-02-06T09:41:45+01:00</time>
      </trkpt>
      <trkpt lat="49.0863" lon="-0.54396">
        <ele>131</ele>
        <time>2020-02-06T09:42:01+01:00</time>
      </trkpt>
      <trkpt lat="49.08627" lon="-0.54363">
        <ele>130</ele>
        <time>2020-02-06T09:42:21+01:00</time>
      </trkpt>
      <trkpt lat="49.08623" lon="-0.54338">
        <ele>130</ele>
        <time>2020-02-06T09:42:37+01:00</time>
      </trkpt>
      <trkpt lat="49.0862" lon="-0.54274">
        <ele>131</ele>
        <time>2020-02-06T09:43:22+01:00</time>
      </trkpt>
      <trkpt lat="49.0862" lon="-0.54268">
        <ele>131</ele>
        <time>2020-02-06T09:43:27+01:00</time>
      </trkpt>
      <trkpt lat="49.08613" lon="-0.54221">
        <ele>133</ele>
        <time>2020-02-06T09:44:00+01:00</time>
      </trkpt>
      <trkpt lat="49.08613" lon="-0.54206">
        <ele>133</ele>
        <time>2020-02-06T09:44:25+01:00</time>
      </trkpt>
      <trkpt lat="49.08607" lon="-0.54179">
        <ele>134</ele>
        <time>2020-02-06T09:45:15+01:00</time>
      </trkpt>
      <trkpt lat="49.08605" lon="-0.54163">
        <ele>134</ele>
        <time>2020-02-06T09:45:29+01:00</time>
      </trkpt>
      <trkpt lat="49.08602" lon="-0.54141">
        <ele>135</ele>
        <time>2020-02-06T09:45:43+01:00</time>
      </trkpt>
      <trkpt lat="49.086" lon="-0.54106">
        <ele>136</ele>
        <time>2020-02-06T09:46:02+01:00</time>
      </trkpt>
      <trkpt lat="49.08604" lon="-0.54079">
        <ele>137</ele>
        <time>2020-02-06T09:46:19+01:00</time>
      </trkpt>
      <trkpt lat="49.08619" lon="-0.54062">
        <ele>137</ele>
        <time>2020-02-06T09:46:47+01:00</time>
      </trkpt>
      <trkpt lat="49.08636" lon="-0.54042">
        <ele>137</ele>
        <time>2020-02-06T09:47:10+01:00</time>
      </trkpt>
      <trkpt lat="49.08648" lon="-0.54059">
        <ele>137</ele>
        <time>2020-02-06T09:47:29+01:00</time>
      </trkpt>
      <trkpt lat="49.08655" lon="-0.54078">
        <ele>138</ele>
        <time>2020-02-06T09:47:45+01:00</time>
      </trkpt>
      <trkpt lat="49.08669" lon="-0.541">
        <ele>137</ele>
        <time>2020-02-06T09:48:02+01:00</time>
      </trkpt>
      <trkpt lat="49.0868" lon="-0.54103">
        <ele>137</ele>
        <time>2020-02-06T09:48:30+01:00</time>
      </trkpt>
      <trkpt lat="49.08719" lon="-0.54066">
        <ele>138</ele>
        <time>2020-02-06T09:49:05+01:00</time>
      </trkpt>
      <trkpt lat="49.08752" lon="-0.54018">
        <ele>137</ele>
        <time>2020-02-06T09:49:44+01:00</time>
      </trkpt>
      <trkpt lat="49.08788" lon="-0.53974">
        <ele>136</ele>
        <time>2020-02-06T09:50:24+01:00</time>
      </trkpt>
      <trkpt lat="49.08797" lon="-0.53963">
        <ele>136</ele>
        <time>2020-02-06T09:50:34+01:00</time>
      </trkpt>
      <trkpt lat="49.08808" lon="-0.53948">
        <ele>135</ele>
        <time>2020-02-06T09:50:47+01:00</time>
      </trkpt>
      <trkpt lat="49.08843" lon="-0.53902">
        <ele>135</ele>
        <time>2020-02-06T09:51:30+01:00</time>
      </trkpt>
      <trkpt lat="49.08873" lon="-0.53872">
        <ele>133</ele>
        <time>2020-02-06T09:52:03+01:00</time>
      </trkpt>
      <trkpt lat="49.089" lon="-0.53845">
        <ele>132</ele>
        <time>2020-02-06T09:52:30+01:00</time>
      </trkpt>
      <trkpt lat="49.08935" lon="-0.53802">
        <ele>130</ele>
        <time>2020-02-06T09:53:12+01:00</time>
      </trkpt>
      <trkpt lat="49.08955" lon="-0.53782">
        <ele>129</ele>
        <time>2020-02-06T09:53:35+01:00</time>
      </trkpt>
      <trkpt lat="49.08965" lon="-0.53768">
        <ele>128</ele>
        <time>2020-02-06T09:53:58+01:00</time>
      </trkpt>
      <trkpt lat="49.08974" lon="-0.53784">
        <ele>129</ele>
        <time>2020-02-06T09:54:36+01:00</time>
      </trkpt>
      <trkpt lat="49.08985" lon="-0.53806">
        <ele>130</ele>
        <time>2020-02-06T09:54:53+01:00</time>
      </trkpt>
      <trkpt lat="49.09015" lon="-0.53853">
        <ele>130</ele>
        <time>2020-02-06T09:55:33+01:00</time>
      </trkpt>
      <trkpt lat="49.09047" lon="-0.53903">
        <ele>128</ele>
        <time>2020-02-06T09:56:14+01:00</time>
      </trkpt>
      <trkpt lat="49.09056" lon="-0.53924">
        <ele>127</ele>
        <time>2020-02-06T09:56:29+01:00</time>
      </trkpt>
      <trkpt lat="49.09061" lon="-0.53941">
        <ele>126</ele>
        <time>2020-02-06T09:57:00+01:00</time>
      </trkpt>
      <trkpt lat="49.09068" lon="-0.53964">
        <ele>125</ele>
        <time>2020-02-06T09:57:45+01:00</time>
      </trkpt>
      <trkpt lat="49.09078" lon="-0.54">
        <ele>123</ele>
        <time>2020-02-06T09:58:12+01:00</time>
      </trkpt>
      <trkpt lat="49.09083" lon="-0.54022">
        <ele>122</ele>
        <time>2020-02-06T09:58:27+01:00</time>
      </trkpt>
      <trkpt lat="49.09089" lon="-0.54043">
        <ele>120</ele>
        <time>2020-02-06T09:59:09+01:00</time>
      </trkpt>
      <trkpt lat="49.09093" lon="-0.54055">
        <ele>120</ele>
        <time>2020-02-06T09:59:23+01:00</time>
      </trkpt>
      <trkpt lat="49.09096" lon="-0.54076">
        <ele>118</ele>
        <time>2020-02-06T09:59:26+01:00</time>
      </trkpt>
      <trkpt lat="49.09101" lon="-0.54113">
        <ele>115</ele>
        <time>2020-02-06T09:59:47+01:00</time>
      </trkpt>
      <trkpt lat="49.09106" lon="-0.54151">
        <ele>111</ele>
        <time>2020-05-14T13:35:44+02:00</time>
      </trkpt>
      <trkpt lat="49.09112" lon="-0.54175">
        <ele>109</ele>
        <time>2020-02-06T10:00:32+01:00</time>
      </trkpt>
      <trkpt lat="49.09119" lon="-0.54196">
        <ele>107</ele>
        <time>2020-05-14T13:35:54+02:00</time>
      </trkpt>
      <trkpt lat="49.09131" lon="-0.54224">
        <ele>106</ele>
        <time>2020-02-06T10:01:31+01:00</time>
      </trkpt>
      <trkpt lat="49.09139" lon="-0.54247">
        <ele>104</ele>
        <time>2020-02-06T10:01:51+01:00</time>
      </trkpt>
      <trkpt lat="49.09152" lon="-0.54266">
        <ele>105</ele>
        <time>2020-02-06T10:01:54+01:00</time>
      </trkpt>
      <trkpt lat="49.09181" lon="-0.54258">
        <ele>104</ele>
        <time>2020-02-06T10:02:37+01:00</time>
      </trkpt>
      <trkpt lat="49.09187" lon="-0.54275">
        <ele>105</ele>
        <time>2020-02-06T10:03:49+01:00</time>
      </trkpt>
      <trkpt lat="49.09201" lon="-0.54295">
        <ele>106</ele>
        <time>2020-02-06T10:04:09+01:00</time>
      </trkpt>
      <trkpt lat="49.09237" lon="-0.54316">
        <ele>108</ele>
        <time>2020-02-06T10:04:45+01:00</time>
      </trkpt>
      <trkpt lat="49.0925" lon="-0.5434">
        <ele>109</ele>
        <time>2020-02-06T10:05:07+01:00</time>
      </trkpt>
      <trkpt lat="49.09259" lon="-0.54348">
        <ele>109</ele>
        <time>2020-02-06T10:06:41+01:00</time>
      </trkpt>
      <trkpt lat="49.09277" lon="-0.54344">
        <ele>109</ele>
        <time>2020-02-06T10:07:07+01:00</time>
      </trkpt>
      <trkpt lat="49.09286" lon="-0.54341">
        <ele>109</ele>
        <time>2020-02-06T10:07:14+01:00</time>
      </trkpt>
      <trkpt lat="49.09306" lon="-0.54332">
        <ele>108</ele>
        <time>2020-02-06T10:07:37+01:00</time>
      </trkpt>
      <trkpt lat="49.09341" lon="-0.54317">
        <ele>107</ele>
        <time>2020-02-06T10:08:09+01:00</time>
      </trkpt>
      <trkpt lat="49.09345" lon="-0.54298">
        <ele>106</ele>
        <time>2020-02-06T10:08:22+01:00</time>
      </trkpt>
      <trkpt lat="49.09357" lon="-0.54274">
        <ele>105</ele>
        <time>2020-02-06T10:08:42+01:00</time>
      </trkpt>
      <trkpt lat="49.09369" lon="-0.54256">
        <ele>104</ele>
        <time>2020-02-06T10:09:02+01:00</time>
      </trkpt>
      <trkpt lat="49.09368" lon="-0.54228">
        <ele>102</ele>
        <time>2020-02-06T10:36:24+01:00</time>
      </trkpt>
      <trkpt lat="49.09352" lon="-0.54207">
        <ele>101</ele>
        <time>2020-02-06T10:36:37+01:00</time>
      </trkpt>
      <trkpt lat="49.09335" lon="-0.54186">
        <ele>101</ele>
        <time>2020-02-06T10:37:27+01:00</time>
      </trkpt>
      <trkpt lat="49.09321" lon="-0.54165">
        <ele>100</ele>
        <time>2020-02-06T10:37:49+01:00</time>
      </trkpt>
      <trkpt lat="49.09303" lon="-0.54143">
        <ele>101</ele>
        <time>2020-02-06T10:38:10+01:00</time>
      </trkpt>
      <trkpt lat="49.09283" lon="-0.54112">
        <ele>103</ele>
        <time>2020-02-06T10:38:37+01:00</time>
      </trkpt>
      <trkpt lat="49.09277" lon="-0.54101">
        <ele>103</ele>
        <time>2020-02-06T10:38:47+01:00</time>
      </trkpt>
      <trkpt lat="49.0925" lon="-0.54047">
        <ele>109</ele>
        <time>2020-02-06T10:39:40+01:00</time>
      </trkpt>
      <trkpt lat="49.09247" lon="-0.54018">
        <ele>111</ele>
        <time>2020-02-06T10:40:06+01:00</time>
      </trkpt>
      <trkpt lat="49.09235" lon="-0.53991">
        <ele>113</ele>
        <time>2020-02-06T10:40:27+01:00</time>
      </trkpt>
      <trkpt lat="49.09232" lon="-0.53982">
        <ele>114</ele>
        <time>2020-02-06T10:40:33+01:00</time>
      </trkpt>
      <trkpt lat="49.0923" lon="-0.53955">
        <ele>115</ele>
        <time>2020-02-06T10:40:56+01:00</time>
      </trkpt>
      <trkpt lat="49.0924" lon="-0.53928">
        <ele>116</ele>
        <time>2020-02-06T10:41:35+01:00</time>
      </trkpt>
      <trkpt lat="49.09259" lon="-0.53931">
        <ele>115</ele>
        <time>2020-02-06T10:41:51+01:00</time>
      </trkpt>
      <trkpt lat="49.09275" lon="-0.5393">
        <ele>113</ele>
        <time>2020-02-06T10:42:01+01:00</time>
      </trkpt>
      <trkpt lat="49.09317" lon="-0.53949">
        <ele>109</ele>
        <time>2020-02-06T10:42:47+01:00</time>
      </trkpt>
      <trkpt lat="49.09362" lon="-0.53948">
        <ele>105</ele>
        <time>2020-02-06T10:43:26+01:00</time>
      </trkpt>
      <trkpt lat="49.09407" lon="-0.53943">
        <ele>102</ele>
        <time>2020-02-06T10:44:14+01:00</time>
      </trkpt>
      <trkpt lat="49.09427" lon="-0.53943">
        <ele>101</ele>
        <time>2020-02-06T10:44:32+01:00</time>
      </trkpt>
      <trkpt lat="49.09434" lon="-0.53946">
        <ele>101</ele>
        <time>2020-02-06T10:44:38+01:00</time>
      </trkpt>
      <trkpt lat="49.09497" lon="-0.53962">
        <ele>97</ele>
        <time>2020-02-06T10:45:13+01:00</time>
      </trkpt>
      <trkpt lat="49.09498" lon="-0.53992">
        <ele>95</ele>
        <time>2020-02-06T10:45:52+01:00</time>
      </trkpt>
      <trkpt lat="49.09501" lon="-0.54013">
        <ele>93</ele>
        <time>2020-02-06T10:46:10+01:00</time>
      </trkpt>
      <trkpt lat="49.09501" lon="-0.54032">
        <ele>93</ele>
        <time>2020-02-06T10:46:14+01:00</time>
      </trkpt>
      <trkpt lat="49.09495" lon="-0.54058">
        <ele>92</ele>
        <time>2020-02-06T10:46:40+01:00</time>
      </trkpt>
      <trkpt lat="49.09495" lon="-0.54084">
        <ele>91</ele>
        <time>2020-02-06T10:46:58+01:00</time>
      </trkpt>
      <trkpt lat="49.09489" lon="-0.54121">
        <ele>94</ele>
        <time>2020-02-06T10:47:01+01:00</time>
      </trkpt>
      <trkpt lat="49.09483" lon="-0.54152">
        <ele>95</ele>
        <time>2020-02-06T10:47:44+01:00</time>
      </trkpt>
      <trkpt lat="49.09474" lon="-0.5419">
        <ele>97</ele>
        <time>2020-02-06T10:48:19+01:00</time>
      </trkpt>
      <trkpt lat="49.09471" lon="-0.54218">
        <ele>99</ele>
        <time>2020-02-06T10:48:27+01:00</time>
      </trkpt>
      <trkpt lat="49.09475" lon="-0.54229">
        <ele>99</ele>
        <time>2020-02-06T10:48:58+01:00</time>
      </trkpt>
      <trkpt lat="49.09507" lon="-0.54249">
        <ele>99</ele>
        <time>2020-02-06T10:49:06+01:00</time>
      </trkpt>
      <trkpt lat="49.09515" lon="-0.54249">
        <ele>98</ele>
        <time>2020-02-06T10:49:39+01:00</time>
      </trkpt>
      <trkpt lat="49.09532" lon="-0.54231">
        <ele>97</ele>
        <time>2020-02-06T10:50:30+01:00</time>
      </trkpt>
      <trkpt lat="49.0954" lon="-0.54211">
        <ele>96</ele>
        <time>2020-02-06T10:50:43+01:00</time>
      </trkpt>
      <trkpt lat="49.09545" lon="-0.54202">
        <ele>96</ele>
        <time>2020-02-06T10:50:50+01:00</time>
      </trkpt>
      <trkpt lat="49.09559" lon="-0.54176">
        <ele>94</ele>
        <time>2020-02-06T10:51:09+01:00</time>
      </trkpt>
      <trkpt lat="49.09583" lon="-0.54117">
        <ele>90</ele>
        <time>2020-02-06T10:51:45+01:00</time>
      </trkpt>
      <trkpt lat="49.09586" lon="-0.54107">
        <ele>89</ele>
        <time>2020-02-06T10:51:52+01:00</time>
      </trkpt>
      <trkpt lat="49.09608" lon="-0.54047">
        <ele>88</ele>
        <time>2020-02-06T10:52:30+01:00</time>
      </trkpt>
      <trkpt lat="49.0962" lon="-0.5402">
        <ele>88</ele>
        <time>2020-02-06T10:52:48+01:00</time>
      </trkpt>
      <trkpt lat="49.09631" lon="-0.53997">
        <ele>87</ele>
        <time>2020-02-06T10:53:04+01:00</time>
      </trkpt>
      <trkpt lat="49.09643" lon="-0.5398">
        <ele>88</ele>
        <time>2020-02-06T10:53:20+01:00</time>
      </trkpt>
      <trkpt lat="49.09652" lon="-0.53981">
        <ele>88</ele>
        <time>2020-02-06T10:53:28+01:00</time>
      </trkpt>
      <trkpt lat="49.09677" lon="-0.53975">
        <ele>87</ele>
        <time>2020-02-06T10:53:55+01:00</time>
      </trkpt>
      <trkpt lat="49.09698" lon="-0.53977">
        <ele>87</ele>
        <time>2020-02-06T10:54:15+01:00</time>
      </trkpt>
      <trkpt lat="49.0971" lon="-0.53971">
        <ele>88</ele>
        <time>2020-02-06T10:54:30+01:00</time>
      </trkpt>
      <trkpt lat="49.09747" lon="-0.53975">
        <ele>87</ele>
        <time>2020-02-06T10:55:01+01:00</time>
      </trkpt>
      <trkpt lat="49.09781" lon="-0.53982">
        <ele>87</ele>
        <time>2020-02-06T10:55:42+01:00</time>
      </trkpt>
      <trkpt lat="49.09814" lon="-0.53996">
        <ele>87</ele>
        <time>2020-02-06T10:56:07+01:00</time>
      </trkpt>
      <trkpt lat="49.09831" lon="-0.54006">
        <ele>86</ele>
        <time>2020-02-06T10:56:33+01:00</time>
      </trkpt>
      <trkpt lat="49.09842" lon="-0.54011">
        <ele>86</ele>
        <time>2020-02-06T10:56:46+01:00</time>
      </trkpt>
      <trkpt lat="49.09871" lon="-0.54023">
        <ele>85</ele>
        <time>2020-02-06T10:57:11+01:00</time>
      </trkpt>
      <trkpt lat="49.0989" lon="-0.54042">
        <ele>84</ele>
        <time>2020-02-06T10:57:31+01:00</time>
      </trkpt>
      <trkpt lat="49.09895" lon="-0.54048">
        <ele>83</ele>
        <time>2020-02-06T10:57:38+01:00</time>
      </trkpt>
      <trkpt lat="49.09917" lon="-0.54067">
        <ele>82</ele>
        <time>2020-02-06T10:58:36+01:00</time>
      </trkpt>
      <trkpt lat="49.0993" lon="-0.54084">
        <ele>80</ele>
        <time>2020-02-06T10:58:57+01:00</time>
      </trkpt>
      <trkpt lat="49.0994" lon="-0.54092">
        <ele>79</ele>
        <time>2020-02-06T10:59:06+01:00</time>
      </trkpt>
      <trkpt lat="49.09954" lon="-0.54105">
        <ele>78</ele>
        <time>2020-02-06T10:59:22+01:00</time>
      </trkpt>
      <trkpt lat="49.09966" lon="-0.54113">
        <ele>78</ele>
        <time>2020-02-06T10:59:34+01:00</time>
      </trkpt>
      <trkpt lat="49.09974" lon="-0.5413">
        <ele>77</ele>
        <time>2020-02-06T10:59:45+01:00</time>
      </trkpt>
      <trkpt lat="49.09971" lon="-0.54176">
        <ele>75</ele>
        <time>2020-02-06T11:00:09+01:00</time>
      </trkpt>
      <trkpt lat="49.09984" lon="-0.54221">
        <ele>75</ele>
        <time>2020-02-06T11:00:24+01:00</time>
      </trkpt>
      <trkpt lat="49.09976" lon="-0.54227">
        <ele>75</ele>
        <time>2020-02-06T11:00:36+01:00</time>
      </trkpt>
      <trkpt lat="49.09969" lon="-0.54266">
        <ele>77</ele>
        <time>2020-02-06T11:01:02+01:00</time>
      </trkpt>
      <trkpt lat="49.09971" lon="-0.54335">
        <ele>80</ele>
        <time>2020-02-06T11:01:48+01:00</time>
      </trkpt>
      <trkpt lat="49.09988" lon="-0.54399">
        <ele>81</ele>
        <time>2020-02-06T11:02:26+01:00</time>
      </trkpt>
      <trkpt lat="49.10002" lon="-0.54465">
        <ele>83</ele>
        <time>2020-02-06T11:03:05+01:00</time>
      </trkpt>
      <trkpt lat="49.10016" lon="-0.54501">
        <ele>83</ele>
        <time>2020-02-06T11:03:26+01:00</time>
      </trkpt>
      <trkpt lat="49.10037" lon="-0.54561">
        <ele>81</ele>
        <time>2020-02-06T11:04:05+01:00</time>
      </trkpt>
      <trkpt lat="49.10054" lon="-0.54626">
        <ele>78</ele>
        <time>2020-02-06T11:04:44+01:00</time>
      </trkpt>
      <trkpt lat="49.10068" lon="-0.54692">
        <ele>75</ele>
        <time>2020-02-06T11:05:23+01:00</time>
      </trkpt>
      <trkpt lat="49.1007" lon="-0.54723">
        <ele>74</ele>
        <time>2020-02-06T11:05:41+01:00</time>
      </trkpt>
      <trkpt lat="49.10072" lon="-0.54792">
        <ele>71</ele>
        <time>2020-02-06T11:06:24+01:00</time>
      </trkpt>
      <trkpt lat="49.10066" lon="-0.54815">
        <ele>70</ele>
        <time>2020-02-06T11:06:40+01:00</time>
      </trkpt>
      <trkpt lat="49.10063" lon="-0.54841">
        <ele>68</ele>
        <time>2020-02-06T11:06:54+01:00</time>
      </trkpt>
      <trkpt lat="49.1006" lon="-0.54865">
        <ele>67</ele>
        <time>2020-02-06T11:07:07+01:00</time>
      </trkpt>
      <trkpt lat="49.10054" lon="-0.54892">
        <ele>66</ele>
        <time>2020-02-06T11:07:23+01:00</time>
      </trkpt>
      <trkpt lat="49.10034" lon="-0.54955">
        <ele>64</ele>
        <time>2020-02-06T11:07:59+01:00</time>
      </trkpt>
      <trkpt lat="49.10019" lon="-0.55005">
        <ele>62</ele>
        <time>2020-02-06T11:08:31+01:00</time>
      </trkpt>
      <trkpt lat="49.10041" lon="-0.55056">
        <ele>59</ele>
        <time>2020-02-06T11:09:07+01:00</time>
      </trkpt>
      <trkpt lat="49.10049" lon="-0.55068">
        <ele>58</ele>
        <time>2020-02-06T11:09:16+01:00</time>
      </trkpt>
      <trkpt lat="49.10067" lon="-0.55129">
        <ele>56</ele>
        <time>2020-02-06T11:09:53+01:00</time>
      </trkpt>
      <trkpt lat="49.10074" lon="-0.55198">
        <ele>57</ele>
        <time>2020-02-06T11:10:33+01:00</time>
      </trkpt>
      <trkpt lat="49.10072" lon="-0.55265">
        <ele>58</ele>
        <time>2020-02-06T11:11:15+01:00</time>
      </trkpt>
      <trkpt lat="49.10062" lon="-0.55277">
        <ele>58</ele>
        <time>2020-02-06T11:11:33+01:00</time>
      </trkpt>
      <trkpt lat="49.10041" lon="-0.55281">
        <ele>59</ele>
        <time>2020-02-06T11:11:53+01:00</time>
      </trkpt>
      <trkpt lat="49.10027" lon="-0.55294">
        <ele>59</ele>
        <time>2020-02-06T11:12:29+01:00</time>
      </trkpt>
      <trkpt lat="49.09986" lon="-0.55314">
        <ele>61</ele>
        <time>2020-02-06T11:13:09+01:00</time>
      </trkpt>
      <trkpt lat="49.09955" lon="-0.55308">
        <ele>64</ele>
        <time>2020-02-06T11:13:36+01:00</time>
      </trkpt>
      <trkpt lat="49.09944" lon="-0.55306">
        <ele>66</ele>
        <time>2020-02-06T11:13:46+01:00</time>
      </trkpt>
      <trkpt lat="49.09925" lon="-0.55304">
        <ele>68</ele>
        <time>2020-02-06T11:14:08+01:00</time>
      </trkpt>
      <trkpt lat="49.09913" lon="-0.55295">
        <ele>69</ele>
        <time>2020-02-06T11:14:27+01:00</time>
      </trkpt>
      <trkpt lat="49.09882" lon="-0.5526">
        <ele>72</ele>
        <time>2020-02-06T11:15:20+01:00</time>
      </trkpt>
      <trkpt lat="49.09868" lon="-0.55233">
        <ele>74</ele>
        <time>2020-02-06T11:16:14+01:00</time>
      </trkpt>
      <trkpt lat="49.09859" lon="-0.55218">
        <ele>76</ele>
        <time>2020-02-06T11:16:31+01:00</time>
      </trkpt>
      <trkpt lat="49.09855" lon="-0.55196">
        <ele>77</ele>
        <time>2020-02-06T11:16:48+01:00</time>
      </trkpt>
      <trkpt lat="49.0985" lon="-0.55184">
        <ele>78</ele>
        <time>2020-02-06T11:17:01+01:00</time>
      </trkpt>
      <trkpt lat="49.09833" lon="-0.55161">
        <ele>80</ele>
        <time>2020-02-06T11:17:32+01:00</time>
      </trkpt>
      <trkpt lat="49.09822" lon="-0.5515">
        <ele>81</ele>
        <time>2020-02-06T11:17:46+01:00</time>
      </trkpt>
      <trkpt lat="49.09799" lon="-0.55122">
        <ele>83</ele>
        <time>2020-02-06T11:18:22+01:00</time>
      </trkpt>
      <trkpt lat="49.09781" lon="-0.55106">
        <ele>84</ele>
        <time>2020-02-06T11:19:18+01:00</time>
      </trkpt>
      <trkpt lat="49.09767" lon="-0.55084">
        <ele>86</ele>
        <time>2020-02-06T11:19:51+01:00</time>
      </trkpt>
      <trkpt lat="49.09757" lon="-0.55072">
        <ele>87</ele>
        <time>2020-02-06T11:20:09+01:00</time>
      </trkpt>
      <trkpt lat="49.0972" lon="-0.55033">
        <ele>90</ele>
        <time>2020-02-06T11:21:01+01:00</time>
      </trkpt>
      <trkpt lat="49.09694" lon="-0.55013">
        <ele>93</ele>
        <time>2020-02-06T11:21:35+01:00</time>
      </trkpt>
      <trkpt lat="49.09675" lon="-0.55002">
        <ele>95</ele>
        <time>2020-02-06T11:22:01+01:00</time>
      </trkpt>
      <trkpt lat="49.09661" lon="-0.54992">
        <ele>96</ele>
        <time>2020-02-06T11:22:16+01:00</time>
      </trkpt>
      <trkpt lat="49.09639" lon="-0.5498">
        <ele>98</ele>
        <time>2020-02-06T11:22:46+01:00</time>
      </trkpt>
      <trkpt lat="49.09626" lon="-0.54973">
        <ele>99</ele>
        <time>2020-02-06T11:23:02+01:00</time>
      </trkpt>
      <trkpt lat="49.09614" lon="-0.54964">
        <ele>101</ele>
        <time>2020-02-06T11:23:18+01:00</time>
      </trkpt>
      <trkpt lat="49.09607" lon="-0.54953">
        <ele>102</ele>
        <time>2020-02-06T11:23:31+01:00</time>
      </trkpt>
      <trkpt lat="49.0959" lon="-0.54937">
        <ele>104</ele>
        <time>2020-02-06T11:24:11+01:00</time>
      </trkpt>
      <trkpt lat="49.09578" lon="-0.54926">
        <ele>106</ele>
        <time>2020-02-06T11:24:25+01:00</time>
      </trkpt>
      <trkpt lat="49.09561" lon="-0.54908">
        <ele>106</ele>
        <time>2020-02-06T11:24:55+01:00</time>
      </trkpt>
      <trkpt lat="49.09556" lon="-0.54903">
        <ele>106</ele>
        <time>2020-02-06T11:25:00+01:00</time>
      </trkpt>
      <trkpt lat="49.09536" lon="-0.54886">
        <ele>106</ele>
        <time>2020-02-06T11:25:21+01:00</time>
      </trkpt>
    </trkseg>
  </trk>
</gpx>